In Rescue
 
Open Full Screen Window  High Contrast Mode
Wind Gusting 00 knots
11
December 15, 2019 3:05 PM PST
Weather Information
Wind Direction
  340 °
Wind Speed
  11 kt (13 mph)
Wind Gust
  00 kt (0 mph)
Altimeter
30.00 in
Visibility
10 SM
Temperature
17° C
63° F
Dewpoint
-04° C
25° F
Humidity
24%
1hr Rain Fall
00.00 in.
24hr Rain Fall
00.06 in.
Sky Condition
Clear
VFR

METAR KSBD 152305Z AUTO 34011KT 10SM CLR 17/M04 A3000 RMK AO2 T01701043

FAA Disclaimer: The data displayed is for advisory purposes only and is not to be used for flight planning or operations.